createdAt,value
2023-03-08T00:00:25.210Z,97611.78
2023-03-08T00:02:58.688Z,97628.44
2023-03-08T00:05:33.084Z,97620.03
2023-03-08T00:08:06.324Z,97619.66
2023-03-08T00:10:39.338Z,97623.47
2023-03-08T00:13:12.350Z,97638.09
2023-03-08T00:15:45.504Z,97616.88
2023-03-08T00:18:18.367Z,97613.97
2023-03-08T00:21:01.414Z,97619.66
2023-03-08T00:23:34.562Z,97624.84
2023-03-08T00:26:07.479Z,97626.59
2023-03-08T00:28:41.141Z,97624.69
2023-03-08T00:31:14.718Z,97617.44
2023-03-08T00:33:47.545Z,97626.69
2023-03-08T00:36:21.929Z,97634.00
2023-03-08T00:38:54.763Z,97627.34
2023-03-08T00:41:27.643Z,97625.81
2023-03-08T00:44:00.838Z,97639.63
2023-03-08T00:46:35.196Z,97638.91
2023-03-08T00:49:08.284Z,97640.56
2023-03-08T00:51:43.034Z,97633.59
2023-03-08T00:54:15.962Z,97636.44
2023-03-08T00:56:48.828Z,97640.28
2023-03-08T00:59:21.736Z,97636.69
2023-03-08T01:01:54.676Z,97638.84
2023-03-08T01:04:27.551Z,97638.91
2023-03-08T01:07:01.774Z,97642.53
2023-03-08T01:09:34.716Z,97640.16
2023-03-08T01:12:07.559Z,97641.69
2023-03-08T01:14:40.577Z,97630.63
2023-03-08T01:17:13.384Z,97628.34
2023-03-08T01:19:46.481Z,97637.94
2023-03-08T01:22:20.876Z,97631.63
2023-03-08T01:24:54.118Z,97628.22
2023-03-08T01:27:27.100Z,97626.19
2023-03-08T01:30:00.017Z,97625.91
2023-03-08T01:32:32.983Z,97625.69
2023-03-08T01:35:06.461Z,97615.81
2023-03-08T01:37:40.734Z,97620.84
2023-03-08T01:40:16.903Z,97625.19
2023-03-08T01:42:50.041Z,97616.78
2023-03-08T01:46:04.814Z,97616.09
2023-03-08T01:48:42.366Z,97623.94
2023-03-08T01:51:25.594Z,97608.38
2023-03-08T01:54:02.113Z,97609.84
2023-03-08T01:56:38.605Z,97603.56
2023-03-08T01:59:12.678Z,97602.25
2023-03-08T02:01:46.598Z,97601.88
2023-03-08T02:04:20.290Z,97607.34
2023-03-08T02:06:54.059Z,97599.78
2023-03-08T02:09:30.335Z,97596.75
2023-03-08T02:12:10.377Z,97599.59
2023-03-08T02:14:44.914Z,97598.53
2023-03-08T02:17:18.031Z,97592.44
2023-03-08T02:19:54.862Z,97594.28
2023-03-08T02:22:27.817Z,97595.41
2023-03-08T02:25:02.380Z,97585.25
2023-03-08T02:27:35.568Z,97600.09
2023-03-08T02:30:09.747Z,97601.91
2023-03-08T02:32:42.704Z,97599.59
2023-03-08T02:35:15.665Z,97600.94
2023-03-08T02:37:48.505Z,97599.16
2023-03-08T02:40:22.913Z,97601.28
2023-03-08T02:42:56.546Z,97597.53
2023-03-08T02:45:29.328Z,97590.84
2023-03-08T02:48:02.396Z,97585.91
2023-03-08T02:50:37.194Z,97591.97
2023-03-08T02:53:10.376Z,97575.69
2023-03-08T02:55:44.701Z,97570.53
2023-03-08T02:58:19.122Z,97574.13
2023-03-08T03:00:52.232Z,97573.78
2023-03-08T03:03:25.147Z,97577.41
2023-03-08T03:05:58.104Z,97573.06
2023-03-08T03:08:36.320Z,97570.88
2023-03-08T03:11:14.806Z,97569.53
2023-03-08T03:13:48.275Z,97569.13
2023-03-08T03:16:22.105Z,97571.59
2023-03-08T03:18:56.170Z,97561.84
2023-03-08T03:21:29.318Z,97561.72
2023-03-08T03:24:02.285Z,97560.59
2023-03-08T03:26:43.967Z,97565.72
2023-03-08T03:29:17.124Z,97559.75
2023-03-08T03:31:51.980Z,97553.22
2023-03-08T03:34:26.463Z,97553.38
2023-03-08T03:36:59.553Z,97553.63
2023-03-08T03:39:34.825Z,97549.66
2023-03-08T03:42:10.340Z,97539.34
2023-03-08T03:44:48.159Z,97546.97
2023-03-08T03:47:25.429Z,97551.91
2023-03-08T03:50:02.815Z,97552.81
2023-03-08T03:52:43.097Z,97554.72
2023-03-08T03:55:16.449Z,97550.63
2023-03-08T03:57:52.805Z,97556.28
2023-03-08T04:00:27.822Z,97550.91
2023-03-08T04:03:12.777Z,97541.66
2023-03-08T04:05:45.730Z,97546.16
2023-03-08T04:08:18.750Z,97545.22
2023-03-08T04:10:51.838Z,97552.78
2023-03-08T04:13:26.002Z,97534.50
2023-03-08T04:15:59.603Z,97537.09
2023-03-08T04:18:32.538Z,97536.97
2023-03-08T04:21:05.974Z,97527.59
2023-03-08T04:23:39.607Z,97527.06
2023-03-08T04:26:13.651Z,97524.22
2023-03-08T04:28:48.077Z,97521.84
2023-03-08T04:31:23.617Z,97521.28
2023-03-08T04:33:58.249Z,97506.91
2023-03-08T04:36:33.026Z,97494.59
2023-03-08T04:39:06.600Z,97489.78
2023-03-08T04:41:40.038Z,97492.06
2023-03-08T04:44:21.891Z,97496.97
2023-03-08T04:46:57.554Z,97500.97
2023-03-08T04:49:37.961Z,97496.88
2023-03-08T04:52:11.348Z,97486.19
2023-03-08T04:54:45.539Z,97483.75
2023-03-08T04:57:26.081Z,97485.72
2023-03-08T05:00:05.941Z,97473.16
2023-03-08T05:02:43.089Z,97469.56
2023-03-08T05:05:20.524Z,97467.28
2023-03-08T05:07:54.277Z,97470.41
2023-03-08T05:10:27.754Z,97468.19
2023-03-08T05:13:02.257Z,97457.00
2023-03-08T05:15:36.547Z,97459.50
2023-03-08T05:18:09.776Z,97458.78
2023-03-08T05:20:43.836Z,97455.31
2023-03-08T05:23:16.887Z,97461.81
2023-03-08T05:25:53.606Z,97465.56
2023-03-08T05:28:29.201Z,97462.66
2023-03-08T05:31:06.264Z,97458.72
2023-03-08T05:33:42.982Z,97452.47
2023-03-08T05:36:16.394Z,97458.06
2023-03-08T05:38:54.090Z,97460.38
2023-03-08T05:41:28.773Z,97455.34
2023-03-08T05:44:03.668Z,97459.38
2023-03-08T05:46:40.463Z,97458.91
2023-03-08T05:49:15.036Z,97457.63
2023-03-08T05:51:48.584Z,97468.97
2023-03-08T05:54:22.468Z,97467.81
2023-03-08T05:56:58.193Z,97477.53
2023-03-08T05:59:32.323Z,97474.28
2023-03-08T06:02:10.150Z,97461.72
2023-03-08T06:04:50.378Z,97468.66
2023-03-08T06:07:26.435Z,97467.97
2023-03-08T06:10:05.049Z,97463.03
2023-03-08T06:12:37.900Z,97462.41
2023-03-08T06:15:13.563Z,97470.31
2023-03-08T06:17:47.869Z,97469.31
2023-03-08T06:20:24.489Z,97460.44
2023-03-08T06:22:58.605Z,97465.03
2023-03-08T06:25:31.481Z,97457.56
2023-03-08T06:28:05.680Z,97456.16
2023-03-08T06:30:43.567Z,97460.41
2023-03-08T06:33:18.216Z,97463.94
2023-03-08T06:35:58.235Z,97454.59
2023-03-08T06:38:35.192Z,97455.06
2023-03-08T06:41:09.915Z,97453.44
2023-03-08T06:43:43.210Z,97448.91
2023-03-08T06:46:20.352Z,97454.53
2023-03-08T06:48:56.065Z,97451.75
2023-03-08T06:51:29.654Z,97444.72
2023-03-08T06:54:02.533Z,97440.44
2023-03-08T06:56:35.893Z,97442.66
2023-03-08T06:59:08.998Z,97444.69
2023-03-08T07:01:42.514Z,97450.00
2023-03-08T07:04:18.127Z,97448.00
2023-03-08T07:06:51.068Z,97449.66
2023-03-08T07:09:24.052Z,97446.53
2023-03-08T07:11:56.972Z,97446.66
2023-03-08T07:14:30.020Z,97441.13
2023-03-08T07:17:02.813Z,97432.56
2023-03-08T07:19:37.119Z,97438.38
2023-03-08T07:22:10.493Z,97440.84
2023-03-08T07:24:43.275Z,97446.66
2023-03-08T07:27:16.092Z,97441.22
2023-03-08T07:29:49.077Z,97438.22
2023-03-08T07:32:23.788Z,97443.84
2023-03-08T07:34:58.995Z,97438.03
2023-03-08T07:37:31.899Z,97441.13
2023-03-08T07:40:05.821Z,97437.59
2023-03-08T07:42:39.120Z,97438.50
2023-03-08T07:45:32.114Z,97428.97
2023-03-08T07:48:05.452Z,97425.75
2023-03-08T07:50:39.829Z,97416.97
2023-03-08T07:53:12.729Z,97408.66
2023-03-08T07:55:45.557Z,97415.66
2023-03-08T07:58:19.646Z,97417.91
2023-03-08T08:00:52.547Z,97408.00
2023-03-08T08:03:25.595Z,97400.03
2023-03-08T08:06:03.323Z,97400.78
2023-03-08T08:08:36.211Z,97400.56
2023-03-08T08:11:13.337Z,97394.50
2023-03-08T08:13:46.997Z,97390.28
2023-03-08T08:16:20.354Z,97379.66
2023-03-08T08:18:54.476Z,97377.09
2023-03-08T08:21:29.364Z,97365.31
2023-03-08T08:24:02.156Z,97366.28
2023-03-08T08:26:35.085Z,97355.97
2023-03-08T08:29:08.226Z,97347.47
2023-03-08T08:31:41.125Z,97342.66
2023-03-08T08:34:14.005Z,97341.44
2023-03-08T08:36:48.423Z,97330.88
2023-03-08T08:39:21.293Z,97322.66
2023-03-08T08:41:54.166Z,97321.88
2023-03-08T08:44:27.172Z,97310.63
2023-03-08T08:47:00.197Z,97308.50
2023-03-08T08:49:33.097Z,97309.50
2023-03-08T08:52:07.579Z,97295.91
2023-03-08T08:54:40.866Z,97288.97
2023-03-08T08:57:13.760Z,97281.03
2023-03-08T08:59:47.930Z,97277.91
2023-03-08T09:02:21.221Z,97268.44
2023-03-08T09:04:54.680Z,97270.19
2023-03-08T09:07:29.070Z,97270.19
2023-03-08T09:10:01.842Z,97270.06
2023-03-08T09:12:34.938Z,97264.38
2023-03-08T09:15:10.342Z,97244.78
2023-03-08T09:17:43.185Z,97232.63
2023-03-08T09:20:17.007Z,97214.81
2023-03-08T09:22:51.931Z,97199.44
2023-03-08T09:25:25.397Z,97186.44
2023-03-08T09:27:58.291Z,97169.09
2023-03-08T09:30:32.883Z,97169.09
2023-03-08T09:33:05.836Z,97154.41
2023-03-08T09:35:38.736Z,97148.19
2023-03-08T09:38:12.941Z,97142.88
2023-03-08T09:40:58.021Z,97138.72
2023-03-08T09:43:42.450Z,97132.81
2023-03-08T09:46:18.100Z,97132.41
2023-03-08T09:48:52.554Z,97134.28
2023-03-08T09:51:29.927Z,97114.53
2023-03-08T09:54:09.454Z,97124.25
2023-03-08T09:56:47.204Z,97115.00
2023-03-08T09:59:25.887Z,97107.31
2023-03-08T10:02:05.728Z,97108.81
2023-03-08T10:05:09.982Z,97115.47
2023-03-08T10:07:52.475Z,97102.69
2023-03-08T10:10:42.039Z,97099.00
2023-03-08T10:13:28.505Z,97096.47
2023-03-08T10:16:11.608Z,97093.78
2023-03-08T10:18:49.729Z,97092.34
2023-03-08T10:21:25.454Z,97088.19
2023-03-08T10:24:03.225Z,97089.88
2023-03-08T10:26:37.571Z,97083.69
2023-03-08T10:29:12.121Z,97079.59
2023-03-08T10:31:47.206Z,97065.03
2023-03-08T10:34:23.050Z,97066.94
2023-03-08T10:37:00.777Z,97063.94
2023-03-08T10:39:33.631Z,97069.38
2023-03-08T10:42:17.277Z,97063.19
2023-03-08T10:44:56.407Z,97059.16
2023-03-08T10:47:31.240Z,97060.03
2023-03-08T10:50:14.654Z,97049.69
2023-03-08T10:52:49.287Z,97041.09
2023-03-08T10:55:24.280Z,97044.13
2023-03-08T10:58:01.055Z,97030.75
2023-03-08T11:00:36.844Z,97025.44
2023-03-08T11:03:15.296Z,97016.03
2023-03-08T11:05:57.989Z,97022.06
2023-03-08T11:08:33.320Z,97024.91
2023-03-08T11:11:11.941Z,97019.47
2023-03-08T11:13:47.685Z,97014.75
2023-03-08T11:16:41.584Z,97005.59
2023-03-08T11:19:28.187Z,97003.38
2023-03-08T11:22:10.341Z,97008.75
2023-03-08T11:25:13.876Z,97011.59
2023-03-08T11:28:01.361Z,97003.38
2023-03-08T11:30:46.784Z,97004.75
2023-03-08T11:33:38.040Z,96991.91
2023-03-08T11:36:16.027Z,96997.69
2023-03-08T11:38:58.197Z,96985.53
2023-03-08T11:41:39.963Z,96974.97
2023-03-08T11:44:31.664Z,96962.91
2023-03-08T11:47:45.033Z,96960.19
2023-03-08T11:50:23.290Z,96946.38
2023-03-08T11:53:06.659Z,96941.63
2023-03-08T11:56:27.273Z,96928.06
2023-03-08T11:59:02.072Z,96923.31
2023-03-08T12:01:42.682Z,96923.22
2023-03-08T12:04:20.424Z,96916.59
2023-03-08T12:06:56.427Z,96899.16
2023-03-08T12:09:34.859Z,96901.94
2023-03-08T12:12:13.707Z,96898.16
2023-03-08T12:14:56.035Z,96894.53
2023-03-08T12:17:35.625Z,96880.56
2023-03-08T12:20:15.103Z,96880.16
2023-03-08T12:22:51.653Z,96877.63
2023-03-08T12:25:28.995Z,96885.78
2023-03-08T12:28:05.772Z,96884.25
2023-03-08T12:30:49.273Z,96885.19
2023-03-08T12:33:23.534Z,96891.94
2023-03-08T12:35:59.536Z,96874.13
2023-03-08T12:38:36.513Z,96872.25
2023-03-08T12:41:24.388Z,96877.78
2023-03-08T12:44:02.384Z,96878.63
2023-03-08T12:47:02.408Z,96882.19
2023-03-08T12:49:38.623Z,96883.66
2023-03-08T12:52:27.336Z,96869.53
2023-03-08T12:55:02.699Z,96871.06
2023-03-08T12:57:43.113Z,96875.00
2023-03-08T13:00:29.162Z,96874.88
2023-03-08T13:03:05.432Z,96869.63
2023-03-08T13:05:39.729Z,96864.09
2023-03-08T13:08:33.644Z,96863.09
2023-03-08T13:11:11.089Z,96859.91
2023-03-08T13:13:51.662Z,96859.66
2023-03-08T13:16:36.005Z,96858.50
2023-03-08T13:19:19.567Z,96845.75
2023-03-08T13:22:01.549Z,96849.72
2023-03-08T13:24:44.446Z,96846.91
2023-03-08T13:27:30.721Z,96837.97
2023-03-08T13:30:20.085Z,96826.22
2023-03-08T13:32:53.572Z,96828.41
2023-03-08T13:35:26.705Z,96824.06
2023-03-08T13:38:01.892Z,96826.78
2023-03-08T13:40:36.252Z,96817.50
2023-03-08T13:43:15.516Z,96824.81
2023-03-08T13:45:49.195Z,96820.94
2023-03-08T13:48:23.135Z,96816.66
2023-03-08T13:50:56.946Z,96813.47
2023-03-08T13:53:33.021Z,96820.44
2023-03-08T13:56:09.213Z,96813.16
2023-03-08T13:58:47.052Z,96825.06
2023-03-08T14:01:22.741Z,96821.06
2023-03-08T14:03:58.387Z,96825.06
2023-03-08T14:06:34.041Z,96820.13
2023-03-08T14:09:07.386Z,96822.00
2023-03-08T14:11:43.180Z,96819.84
2023-03-08T14:14:21.796Z,96815.81
2023-03-08T14:16:55.530Z,96807.06
2023-03-08T14:19:31.134Z,96803.34
2023-03-08T14:22:11.187Z,96799.94
2023-03-08T14:24:50.356Z,96803.97
2023-03-08T14:27:34.849Z,96794.72
2023-03-08T14:30:16.021Z,96798.72
2023-03-08T14:33:06.264Z,96796.22
2023-03-08T14:35:41.869Z,96794.66
2023-03-08T14:38:15.897Z,96805.72
2023-03-08T14:40:50.730Z,96796.41
2023-03-08T14:43:27.428Z,96807.69
2023-03-08T14:46:03.745Z,96808.44
2023-03-08T14:48:38.506Z,96812.59
2023-03-08T14:51:28.663Z,96797.94
2023-03-08T14:54:03.304Z,96803.13
2023-03-08T14:56:36.237Z,96809.19
2023-03-08T14:59:25.192Z,96826.66
2023-03-08T15:02:00.451Z,96824.34
2023-03-08T15:04:33.361Z,96811.88
2023-03-08T15:07:07.235Z,96811.53
2023-03-08T15:09:42.079Z,96814.78
2023-03-08T15:12:15.096Z,96798.59
2023-03-08T15:14:49.321Z,96795.81
2023-03-08T15:17:22.672Z,96798.75
2023-03-08T15:19:55.494Z,96788.69
2023-03-08T15:22:28.411Z,96776.59
2023-03-08T15:25:01.316Z,96782.31
2023-03-08T15:27:34.739Z,96763.28
2023-03-08T15:30:16.524Z,96766.53
2023-03-08T15:32:49.465Z,96768.97
2023-03-08T15:35:23.004Z,96765.84
2023-03-08T15:37:55.922Z,96767.09
2023-03-08T15:40:30.864Z,96783.00
2023-03-08T15:43:04.027Z,96784.25
2023-03-08T15:45:39.725Z,96774.22
2023-03-08T15:48:15.339Z,96766.19
2023-03-08T15:50:49.512Z,96753.69
2023-03-08T15:53:34.533Z,96756.03
2023-03-08T15:56:08.240Z,96763.75
2023-03-08T15:58:41.089Z,96753.06
2023-03-08T16:01:16.061Z,96756.78
2023-03-08T16:03:49.196Z,96760.75
2023-03-08T16:06:22.627Z,96759.38
2023-03-08T16:08:55.582Z,96753.34
2023-03-08T16:11:28.408Z,96757.09
2023-03-08T16:14:01.321Z,96748.13
2023-03-08T16:16:45.122Z,96735.13
2023-03-08T16:19:18.598Z,96728.03
2023-03-08T16:21:51.793Z,96720.63
2023-03-08T16:24:25.833Z,96717.19
2023-03-08T16:26:59.466Z,96712.13
2023-03-08T16:29:33.479Z,96718.75
2023-03-08T16:32:08.484Z,96723.81
2023-03-08T16:34:41.455Z,96728.56
2023-03-08T16:37:14.381Z,96719.41
2023-03-08T16:39:49.579Z,96728.22
2023-03-08T16:42:23.289Z,96724.44
2023-03-08T16:44:57.104Z,96729.00
2023-03-08T16:47:32.318Z,96731.88
2023-03-08T16:50:05.843Z,96739.59
2023-03-08T16:52:39.260Z,96735.03
2023-03-08T16:55:13.162Z,96730.66
2023-03-08T16:57:46.011Z,96727.16
2023-03-08T17:00:20.462Z,96729.34
2023-03-08T17:02:54.687Z,96720.03
2023-03-08T17:05:27.552Z,96725.47
2023-03-08T17:08:01.129Z,96718.44
2023-03-08T17:10:38.323Z,96724.38
2023-03-08T17:13:11.525Z,96722.56
2023-03-08T17:15:47.374Z,96714.81
2023-03-08T17:18:24.339Z,96723.63
2023-03-08T17:20:57.786Z,96708.09
2023-03-08T17:23:30.616Z,96712.59
2023-03-08T17:26:05.919Z,96716.44
2023-03-08T17:28:40.201Z,96723.56
2023-03-08T17:31:15.268Z,96727.97
2023-03-08T17:33:49.935Z,96724.81
2023-03-08T17:36:22.911Z,96728.84
2023-03-08T17:38:56.719Z,96731.69
2023-03-08T17:41:29.873Z,96722.88
2023-03-08T17:44:03.356Z,96726.13
2023-03-08T17:46:36.693Z,96717.38
2023-03-08T17:49:12.170Z,96713.16
2023-03-08T17:51:45.315Z,96719.19
2023-03-08T17:54:18.333Z,96718.53
2023-03-08T17:56:51.367Z,96717.56
2023-03-08T17:59:24.215Z,96711.50
2023-03-08T18:01:56.948Z,96699.72
2023-03-08T18:04:31.294Z,96709.38
2023-03-08T18:07:04.786Z,96708.91
2023-03-08T18:09:38.034Z,96712.75
2023-03-08T18:12:11.718Z,96712.28
2023-03-08T18:14:47.298Z,96711.03
2023-03-08T18:17:21.101Z,96715.94
2023-03-08T18:19:55.225Z,96723.31
2023-03-08T18:22:28.516Z,96715.84
2023-03-08T18:25:01.293Z,96722.16
2023-03-08T18:27:34.402Z,96713.34
2023-03-08T18:30:10.257Z,96716.78
2023-03-08T18:32:45.350Z,96727.25
2023-03-08T18:35:22.542Z,96737.03
2023-03-08T18:37:55.788Z,96726.91
2023-03-08T18:40:29.484Z,96728.47
2023-03-08T18:43:03.313Z,96731.72
2023-03-08T18:45:36.180Z,96723.66
2023-03-08T18:48:09.100Z,96731.75
2023-03-08T18:50:44.520Z,96732.38
2023-03-08T18:53:17.379Z,96722.72
2023-03-08T18:55:55.300Z,96734.66
2023-03-08T18:58:28.894Z,96728.50
2023-03-08T19:01:03.315Z,96735.19
2023-03-08T19:03:36.230Z,96751.72
2023-03-08T19:06:11.964Z,96750.53
2023-03-08T19:08:44.744Z,96742.91
2023-03-08T19:11:19.755Z,96742.31
2023-03-08T19:13:52.732Z,96731.06
2023-03-08T19:16:27.740Z,96729.28
2023-03-08T19:19:02.704Z,96718.50
2023-03-08T19:21:39.016Z,96738.22
2023-03-08T19:24:13.335Z,96730.81
2023-03-08T19:26:50.236Z,96736.22
2023-03-08T19:29:25.052Z,96733.97
2023-03-08T19:32:00.164Z,96736.00
2023-03-08T19:34:35.885Z,96735.56
2023-03-08T19:37:11.678Z,96743.13
2023-03-08T19:39:47.091Z,96751.47
2023-03-08T19:42:20.120Z,96739.69
2023-03-08T19:44:52.935Z,96743.28
2023-03-08T19:47:25.901Z,96746.41
2023-03-08T19:49:58.920Z,96742.72
2023-03-08T19:52:33.795Z,96749.22
2023-03-08T19:55:07.677Z,96750.00
2023-03-08T19:57:42.269Z,96749.69
2023-03-08T20:00:17.702Z,96747.41
2023-03-08T20:02:50.565Z,96750.03
2023-03-08T20:05:23.675Z,96747.41
2023-03-08T20:08:00.153Z,96752.81
2023-03-08T20:10:33.134Z,96746.19
2023-03-08T20:13:06.165Z,96752.38
2023-03-08T20:15:39.001Z,96760.28
2023-03-08T20:18:11.898Z,96749.59
2023-03-08T20:20:45.055Z,96752.09
2023-03-08T20:23:19.510Z,96765.22
2023-03-08T20:25:52.678Z,96762.44
2023-03-08T20:28:25.785Z,96762.28
2023-03-08T20:30:58.901Z,96768.94
2023-03-08T20:33:31.868Z,96768.94
2023-03-08T20:36:05.578Z,96767.84
2023-03-08T20:38:39.908Z,96771.91
2023-03-08T20:41:15.979Z,96780.97
2023-03-08T20:43:50.855Z,96769.28
2023-03-08T20:46:25.772Z,96766.97
2023-03-08T20:48:58.768Z,96766.19
2023-03-08T20:51:31.790Z,96771.06
2023-03-08T20:54:06.202Z,96774.81
2023-03-08T20:56:39.440Z,96757.09
2023-03-08T20:59:12.284Z,96758.31
2023-03-08T21:01:45.856Z,96761.28
2023-03-08T21:04:18.896Z,96754.78
2023-03-08T21:06:51.889Z,96755.53
2023-03-08T21:09:26.204Z,96756.34
2023-03-08T21:11:59.239Z,96754.81
2023-03-08T21:14:32.041Z,96744.94
2023-03-08T21:17:04.944Z,96744.47
2023-03-08T21:19:38.113Z,96734.13
2023-03-08T21:22:10.934Z,96727.63
2023-03-08T21:24:45.043Z,96726.38
2023-03-08T21:27:17.925Z,96720.63
2023-03-08T21:29:50.902Z,96709.72
2023-03-08T21:32:24.524Z,96718.66
2023-03-08T21:34:58.187Z,96715.13
2023-03-08T21:37:31.167Z,96705.34
2023-03-08T21:40:07.425Z,96709.00
2023-03-08T21:42:40.349Z,96704.84
2023-03-08T21:45:13.592Z,96709.97
2023-03-08T21:47:46.435Z,96705.41
2023-03-08T21:50:19.734Z,96704.88
2023-03-08T21:52:52.713Z,96712.34
2023-03-08T21:55:27.037Z,96710.25
2023-03-08T21:57:59.852Z,96700.19
2023-03-08T22:00:33.011Z,96708.22
2023-03-08T22:03:06.103Z,96708.69
2023-03-08T22:05:38.932Z,96698.56
2023-03-08T22:08:11.778Z,96690.53
2023-03-08T22:10:45.980Z,96697.41
2023-03-08T22:13:19.051Z,96691.84
2023-03-08T22:15:52.252Z,96688.75
2023-03-08T22:18:26.512Z,96686.56
2023-03-08T22:21:00.219Z,96681.78
2023-03-08T22:23:36.020Z,96672.59
2023-03-08T22:26:11.351Z,96677.47
2023-03-08T22:28:44.334Z,96676.41
2023-03-08T22:31:19.751Z,96671.63
2023-03-08T22:33:53.300Z,96686.06
2023-03-08T22:36:26.262Z,96683.09
2023-03-08T22:38:59.261Z,96695.81
2023-03-08T22:41:34.075Z,96697.06
2023-03-08T22:44:07.322Z,96700.19
2023-03-08T22:46:40.868Z,96688.59
2023-03-08T22:49:16.074Z,96694.09
2023-03-08T22:51:50.483Z,96691.78
2023-03-08T22:54:24.135Z,96696.66
2023-03-08T22:56:58.858Z,96701.66
2023-03-08T22:59:31.777Z,96693.19
2023-03-08T23:02:05.301Z,96683.97
2023-03-08T23:04:38.257Z,96686.50
2023-03-08T23:07:11.230Z,96672.41
2023-03-08T23:09:44.168Z,96669.31
2023-03-08T23:12:18.617Z,96668.31
2023-03-08T23:14:51.757Z,96664.28
2023-03-08T23:17:24.764Z,96659.88
2023-03-08T23:19:58.497Z,96643.75
2023-03-08T23:22:31.363Z,96646.03
2023-03-08T23:25:04.929Z,96641.44
2023-03-08T23:27:39.165Z,96627.94
2023-03-08T23:30:15.325Z,96631.66
2023-03-08T23:32:48.390Z,96632.06
2023-03-08T23:35:21.388Z,96635.34
2023-03-08T23:37:54.375Z,96629.50
2023-03-08T23:40:27.469Z,96630.59
2023-03-08T23:43:01.689Z,96624.09
2023-03-08T23:45:34.567Z,96614.63
2023-03-08T23:48:07.553Z,96609.81
2023-03-08T23:50:41.141Z,96593.47
2023-03-08T23:53:14.111Z,96593.66
2023-03-08T23:55:47.121Z,96589.25
2023-03-08T23:58:21.304Z,96588.28
